Sunday, October 21, 2018, 10:22 PM EDT
Back to Local

KSFZ, Pawtucket, North Central State Airport

Location: Smithfield, RI, United States Lat: 41.917
Local Time: 10:22 PM EDT ( 2:22 GMT) Lon: -71.5
Time Zone: US/Eastern Elev: 439 ft

Show me the last for .
Show Decoded

2018-10-21 21:56 METAR KSFZ 220156Z AUTO 30004KT 10SM CLR M01/M05 A3006 RMK AO2 SLP128 T10061050
                 FZRANO =
2018-10-21 20:56 METAR KSFZ 220056Z AUTO 32005KT 10SM CLR 01/M06 A3003 RMK AO2 SLP120 T00061061
                 FZRANO =
2018-10-21 19:56 METAR KSFZ 212356Z AUTO 32006KT 10SM CLR 01/M06 A3000 RMK AO2 SLP109 T00111056
                 10072 20011 51039 FZRANO =
2018-10-21 18:56 METAR KSFZ 212256Z AUTO 31005KT 10SM CLR 02/M05 A2997 RMK AO2 SLP098 T00171050
                 FZRANO =
2018-10-21 17:56 METAR KSFZ 212156Z AUTO 33006KT 10SM CLR 04/M06 A2993 RMK AO2 SLP083 T00391056 =
2018-10-21 16:56 METAR KSFZ 212056Z AUTO 34012KT 10SM FEW050 06/M04 A2989 RMK AO2 PK WND
                 34026/1958 SLP068 T00561044 53025 =
2018-10-21 15:56 METAR KSFZ 211956Z AUTO 33014G23KT 10SM BKN047 07/M04 A2985 RMK AO2 SLP057
                 T00671039 =
2018-10-21 14:56 METAR KSFZ 211856Z AUTO 33015G22KT 10SM OVC041 06/M03 A2983 RMK AO2 PK WND
                 34026/1833 SLP050 T00611028 =
2018-10-21 13:56 METAR KSFZ 211756Z AUTO 33018G26KT 10SM OVC045 07/M03 A2981 RMK AO2 PK WND
                 34028/1746 SLP043 60003 T00671028 10078 20050 51013 =
2018-10-21 12:56 METAR KSFZ 211656Z AUTO 31013G26KT 10SM FEW045 08/M02 A2979 RMK AO2 PK WND
                 34028/1644 SLP037 T00781022 =
2018-10-21 11:56 METAR KSFZ 211556Z AUTO 33015G22KT 300V360 10SM BKN039 06/M02 A2979 RMK AO2 PK
                 WND 33027/1503 SLP036 T00611017 =
2018-10-21 10:56 METAR KSFZ 211456Z AUTO 33013G19KT 10SM BKN033 OVC090 06/02 A2977 RMK AO2 SLP029
                 60003 T00610017 51018 =
2018-10-21 09:56 METAR KSFZ 211356Z AUTO 34010G16KT 10SM FEW060 BKN075 06/03 A2977 RMK AO2 RAE07
                 SLP028 P0000 T00560033 =
2018-10-21 08:56 METAR KSFZ 211256Z AUTO 34006KT 10SM -RA BKN045 OVC055 05/03 A2974 RMK AO2
                 SLP019 P0003 T00500033 =
2018-10-21 08:26 METAR KSFZ 211226Z AUTO 36010G18KT 10SM -RA SCT013 BKN039 OVC048 05/03 A2972 RMK
                 AO2 P0002 =
2018-10-21 07:56 METAR KSFZ 211156Z AUTO 34010KT 10SM -RA FEW019 BKN024 OVC050 05/04 A2972 RMK
                 AO2 SLP011 P0001 60003 70003 T00500039 10089 20050 53042 =
2018-10-21 07:48 METAR KSFZ 211148Z AUTO 35010KT 10SM -RA FEW019 BKN024 OVC044 05/03 A2971 RMK
                 AO2 PRESRR P0001 =
2018-10-21 06:56 METAR KSFZ 211056Z AUTO 36013G19KT 10SM -RA BKN030 BKN036 OVC049 06/02 A2967 RMK
                 AO2 SLP993 P0000 T00610022 =
2018-10-21 05:56 METAR KSFZ 210956Z AUTO 00000KT 10SM -RA SCT046 OVC055 07/06 A2962 RMK AO2
                 SLP979 P0001 T00720061 =
2018-10-21 04:56 METAR KSFZ 210856Z AUTO 02003KT 10SM -RA OVC043 08/06 A2959 RMK AO2 SLP967 P0001
                 60001 T00780061 53008 =
2018-10-21 03:56 METAR KSFZ 210756Z AUTO 30006KT 10SM -RA OVC055 08/06 A2957 RMK AO2 RAB51 SLP959
                 P0000 T00830056 =
2018-10-21 02:56 METAR KSFZ 210656Z AUTO 34006KT 10SM OVC050 09/06 A2955 RMK AO2 RAB03E15 SLP955
                 P0000 T00890056 =
2018-10-21 01:56 METAR KSFZ 210556Z AUTO VRB03KT 10SM BKN060 OVC090 09/06 A2957 RMK AO2 RAB30E56
                 SLP958 P0000 60000 T00890061 10100 20056 58014 =
2018-10-21 00:56 METAR KSFZ 210456Z AUTO 00000KT 10SM FEW070 OVC100 07/06 A2958 RMK AO2 SLP965
                 T00720061 401720056 =
2018-10-20 23:56 METAR KSFZ 210356Z AUTO 00000KT 10SM BKN065 OVC090 07/06 A2959 RMK AO2 SLP968
                 T00720061 =
2018-10-20 22:56 METAR KSFZ 210256Z AUTO 22003KT 10SM BKN070 OVC085 06/05 A2961 RMK AO2 SLP974
                 T00560050 53005 =

Support USWX by starting your Amazon purchase here.